AirNav   Air Wisconsin Up To $57,000 Bonus
 
 593 users online  

73II Nulltown Wingnuts Ultralight Flightpark
Connersville, Indiana, USA

GOING TO CONNERSVILLE?


FAA INFORMATION EFFECTIVE 26 MARCH 2020

Location

FAA Identifier: 73II
Lat/Long: 39-34-18.0000N 085-09-31.0000W
39-34.300000N 085-09.516667W
39.5716667,-85.1586111
(estimated)
Elevation: 765 ft. / 233 m (estimated)
Variation: 03W (1990)
From city: 5 miles S of CONNERSVILLE, IN
Time zone: UTC -4 (UTC -5 during Standard Time)
Zip code: 47331

Ultralight Flight Park Operations

Ultralight Flight Park use: Private use. Permission required prior to landing
Activation date: 11/1994
Control tower: no
ARTCC: INDIANAPOLIS CENTER
FSS: TERRE HAUTE FLIGHT SERVICE STATION
Attendance: UNATNDD
Wind indicator: yes
Segmented circle: no

Ultralight Flight Park Communications

WX AWOS-3 at CEV (8 nm N): 118.325 (765-827-6649)
WX AWOS-3 at HLB (14 nm S): 122.725 (812-933-0108)
WX AWOS-3PT at OXD (18 nm E): 118.625 (513-273-2032)
WX AWOS-3 at RID (18 nm NE): 121.225 (765-983-1903)

Nearby radio navigation aids

VOR radial/distance  VOR name  Freq  Var
SHBr096/31.0SHELBYVILLE VOR/DME112.0001E
CVGr332/39.5CINCINNATI VORTAC117.3004W

 
NDB name  Hdg/Dist  Freq  Var  ID
PNTHR190/12.422704WSQ ... --.-
BATESVILLE024/14.325405WHLB .... .-.. -...
NEW CASTLE164/19.938506WUWL ..- .-- .-..
HOOK FIELD282/33.223904WHKF .... -.- ..-.

Ultralight Flight Park Services

Runway Information

Runway NE/SW

Dimensions: 2000 x 60 ft. / 610 x 18 m
Surface: turf
RUNWAY NE  RUNWAY SW
Traffic pattern: leftleft
Obstructions: none60 ft. trees, 800 ft. from runway

Ultralight Flight Park Ownership and Management from official FAA records

Ownership: Privately-owned
Owner: NULLTOWN WINGNUTS
BOX 1025 W CR 480S
CONNERSVILLE, IN 47331
Phone 317-825-6898
Manager: G. DOUG HOWARD
1025 W COUNTY ROAD 480 S
CONNERVILLE, IN 47331-8902
Phone (765) 821-1562
HOME: 765-821-1562

Ultralight Flight Park Operational Statistics

Aircraft based on the field: 7
Single engine airplanes: 4
Ultralights: 3
    

Additional Remarks

FOR CD CTC CINCINNATI APCH AT 859-372-6440

Instrument Procedures

There are no published instrument procedures at 73II.

Some nearby airports with instrument procedures:

KCEV - Mettel Field Airport (8 nm N)
KOXD - Miami University Airport (18 nm E)
KRID - Richmond Municipal Airport (18 nm NE)
KUWL - New Castle Henry County Airport / Marlatt Field (20 nm NW)
I34 - Greensburg Municipal Airport (22 nm SW)
 
Loc | Ops | Rwys | IFR | FBO | Links
Com | Nav | Svcs | Stats | Notes
Area around 73II (Nulltown Wingnuts Ultralight Flightpark)
 
Road maps at: MapQuest Bing Google
 
Aerial photo
No photo
 
Sectional chart

 
Airport distance calculator
Flying to Nulltown Wingnuts Ultralight Flightpark? Find the distance to fly.

From to 73II

Sunrise and sunset
Times for 29-Mar-2020
 Local
(UTC-4)
 Zulu
(UTC)
Morning civil twilight07:0211:02
Sunrise07:2911:29
Sunset20:0100:01
Evening civil twilight20:2800:28

Current date and time
Zulu (UTC)  29-Mar-2020 04:20:24
Local (UTC-4)  29-Mar-2020 00:20:24
 
METAR
KHLB 
14nm S 
290355Z AUTO 19010G20KT 3SM BR FEW004 BKN031 OVC037 18/18 A2980 RMK A01 P0019
KOXD 
18nm E 
290355Z AUTO 23020KT 7SM TSRA SCT018 BKN042 OVC075 19/19 A2982 RMK AO2 LTG DSNT ALQS P0012 T01930193
KRID 
18nm NE 
290355Z AUTO 21011KT 7SM RA SCT035 BKN060 OVC100 17/17 A2979 RMK AO2 P0001
KI67 
26nm SE 
290355Z AUTO 25010G16KT 5SM SCT028 BKN037 OVC044 20/17 A2983 RMK AO1
TAF
KCVG 
39nm SE 
282041Z 2821/2924 22011KT P6SM VCTS OVC050CB FM290000 18007KT P6SM SCT050 SCT100 FM290500 19010KT P6SM VCTS OVC040CB WS020/21045KT FM290900 21014G24KT 4SM -SHRA OVC040 WS020/23045KT FM291100 23015G25KT P6SM BKN120 FM291500 22020G35KT P6SM SCT200
KLUK 
45nm SE 
282041Z 2821/2918 22011KT P6SM VCTS OVC050CB FM290000 18007KT P6SM SCT050 SCT100 FM290500 19010KT P6SM VCTS OVC040CB WS020/21045KT FM290900 21014G24KT 4SM -SHRA OVC040 WS020/23045KT FM291100 23015G25KT P6SM BKN120 FM291500 22020G35KT P6SM SCT200
KDAY 
48nm NE 
290106Z 2901/2924 08010KT P6SM BKN016 BKN035 OVC160 FM290200 18008KT P6SM OVC120 FM290500 19009KT P6SM VCTS OVC040CB FM290600 20013G22KT 4SM -TSRA BR OVC050CB WS020/22040KT TEMPO 2906/2909 2SM TSRA BR OVC015CB FM290900 21014G24KT 4SM -SHRA OVC025 FM291100 23015G25KT P6SM SCT025 FM291400 22020G38KT P6SM BKN025 FM292100 22020G35KT P6SM SCT025
NOTAMs
Click for the latest NOTAMs
NOTAMs are issued by the DoD/FAA and will open in a separate window not controlled by AirNav.

 

 
 

Would you like to see your business listed on this page?

 If your business provides an interesting product or service to pilots, flight crews, aircraft, or users of the Nulltown Wingnuts Ultralight Flightpark, you should consider listing it here.  To start the listing process, click on the button below
 
Add a business
 

Other Pages about Nulltown Wingnuts Ultralight Flightpark

Update a link
 
Copyright © AirNav, LLC. All rights reserved. Privacy Policy  Contact